Terminal Aerodrome Forecast
Issued by NWS

Home | Current Version | Previous Version | Text Only | Print | Product List | Glossary Off
Versions: 1 2 3 4 5 6 7 8 9 10 11 12 13 14 15 16 17 18 19 20

705
FTUS41 KCLE 190254 AAA
TAFFDY
TAF AMD
KFDY 190254Z 1903/1924 24007KT 4SM BR OVC004
     FM191100 21005KT 4SM BR OVC009
     FM191300 20005KT 4SM BR OVC015
     FM191400 19005KT P6SM BKN250=

USA.gov is the U.S. government's official web portal to all federal, state and local government web resources and services.